Aviation Digital Data Service (ADDS)

Output produced by METARs form (0725 UTC 06 May 2015)
found at http://aviationweather.gov/adds/metars/
 
KMSS 060540Z 0606/0706 24006KT P6SM BKN250